Time;durP1;ratioP1;P1;durP2;ratioP2;P2;SDS_P1;SDS_P2;PMS_P1;PMS_P2;Temp;Humidity;BMP_temperature;BMP_pressure;BME280_temperature;BME280_humidity;BME280_pressure;Samples;Min_cycle;Max_cycle;Signal;HPM_P1;HPM_P2
2023/12/02 00:01:28;;;;;;;;;;;;;;;18.11;60.73;99975.28;7388328;19;1443;-39
2023/12/02 00:03:59;;;;;;;;;;;;;;;18.09;60.66;99986.97;7389434;19;1571;-39
2023/12/02 00:06:27;;;;;;;;;;;;;;;18.09;60.75;99975.44;7390605;19;1478;-39
2023/12/02 00:08:56;;;;;;;;;;;;;;;18.06;60.72;99965.88;7389340;19;1535;-39
2023/12/02 00:11:24;;;;;;;;;;;;;;;18.01;60.84;99975.34;7389876;19;1728;-39
2023/12/02 00:13:52;;;;;;;;;;;;;;;18.45;59.85;99976.34;7389177;19;1840;-39
2023/12/02 00:16:20;;;;;;;;;;;;;;;18.90;58.58;99961.25;7389563;19;1444;-39
2023/12/02 00:18:49;;;;;;;;;;;;;;;18.58;59.31;99976.00;7387980;19;1413;-39
2023/12/02 00:21:20;;;;;;;;;;;;;;;18.33;59.92;99972.19;7389750;19;1848;-40
2023/12/02 00:23:49;;;;;;;;;;;;;;;18.28;60.34;99969.13;7375696;19;1386;-39
2023/12/02 00:26:17;;;;;;;;;;;;;;;18.23;60.58;99961.53;7389276;19;1844;-40
2023/12/02 00:28:45;;;;;;;;;;;;;;;18.16;60.54;99962.28;7388712;19;1506;-39
2023/12/02 00:31:14;;;;;;;;;;;;;;;18.08;60.58;99960.34;7389033;19;1823;-39
2023/12/02 00:33:42;;;;;;;;;;;;;;;18.12;60.47;99953.72;7388717;19;1598;-40
2023/12/02 00:36:11;;;;;;;;;;;;;;;18.10;60.30;99947.66;7387127;19;1869;-39
2023/12/02 00:38:42;;;;;;;;;;;;;;;18.13;60.58;99954.56;7387628;19;1571;-39
2023/12/02 00:41:11;;;;;;;;;;;;;;;18.05;60.66;99941.94;7387169;19;1509;-40
2023/12/02 00:43:39;;;;;;;;;;;;;;;18.06;60.38;99948.97;7387735;19;1255;-40
2023/12/02 00:46:08;;;;;;;;;;;;;;;18.05;60.46;99936.59;7388712;19;1782;-39
2023/12/02 00:48:37;;;;;;;;;;;;;;;18.03;60.49;99934.06;7387878;19;1718;-39
2023/12/02 00:51:05;;;;;;;;;;;;;;;17.99;60.55;99942.53;7388093;19;1690;-39
2023/12/02 00:53:34;;;;;;;;;;;;;;;17.98;60.78;99941.69;7388458;19;1689;-39
2023/12/02 00:56:05;;;;;;;;;;;;;;;18.45;59.58;99940.69;7386737;19;1864;-39
2023/12/02 00:58:33;;;;;;;;;;;;;;;18.83;58.35;99946.78;7388715;19;1724;-40
2023/12/02 01:01:01;;;;;;;;;;;;;;;18.54;59.17;99945.13;7384879;19;1786;-40
2023/12/02 01:03:30;;;;;;;;;;;;;;;18.28;60.07;99937.00;7388027;19;1823;-40
2023/12/02 01:05:58;;;;;;;;;;;;;;;18.18;60.17;99945.09;7385595;19;1507;-40
2023/12/02 01:08:26;;;;;;;;;;;;;;;18.12;60.03;99943.00;7387757;19;1569;-40
2023/12/02 01:10:54;;;;;;;;;;;;;;;18.08;60.48;99930.94;7388421;19;1508;-40
2023/12/02 01:13:25;;;;;;;;;;;;;;;18.04;60.37;99938.41;7389375;19;1547;-40
2023/12/02 01:15:54;;;;;;;;;;;;;;;18.10;60.31;99945.00;7388279;19;1852;-40
2023/12/02 01:18:22;;;;;;;;;;;;;;;18.07;60.47;99950.66;7388999;19;1852;-40
2023/12/02 01:20:51;;;;;;;;;;;;;;;18.02;60.54;99920.81;7388351;19;1828;-40
2023/12/02 01:23:19;;;;;;;;;;;;;;;18.04;60.44;99943.75;7373343;19;1612;-40
2023/12/02 01:25:47;;;;;;;;;;;;;;;18.03;60.22;99933.22;7388117;19;1958;-40
2023/12/02 01:28:16;;;;;;;;;;;;;;;18.02;60.24;99928.84;7388492;19;1511;-40
2023/12/02 01:30:47;;;;;;;;;;;;;;;17.99;60.20;99937.19;7389926;19;1478;-40
2023/12/02 01:33:15;;;;;;;;;;;;;;;17.97;60.36;99939.19;7392604;19;1658;-40
2023/12/02 01:35:43;;;;;;;;;;;;;;;18.51;59.17;99929.38;7393581;19;1854;-40
2023/12/02 01:38:12;;;;;;;;;;;;;;;18.70;58.43;99904.25;7394156;19;1504;-40
2023/12/02 01:40:40;;;;;;;;;;;;;;;18.37;59.15;99911.19;7396183;19;1558;-40
2023/12/02 01:43:08;;;;;;;;;;;;;;;18.20;59.58;99940.44;7395384;19;1793;-40
2023/12/02 01:45:37;;;;;;;;;;;;;;;18.09;60.33;99904.03;7394668;19;1918;-40
2023/12/02 01:48:08;;;;;;;;;;;;;;;18.05;59.99;99917.88;7392851;19;1849;-41
2023/12/02 01:50:36;;;;;;;;;;;;;;;18.05;60.02;99924.06;7395174;19;1461;-40
2023/12/02 01:53:04;;;;;;;;;;;;;;;18.06;60.07;99916.84;7394397;19;1576;-40
2023/12/02 01:55:33;;;;;;;;;;;;;;;18.05;59.94;99926.72;7393499;19;1851;-40
2023/12/02 01:58:02;;;;;;;;;;;;;;;18.00;60.25;99918.28;7391834;19;1537;-40
2023/12/02 02:00:30;;;;;;;;;;;;;;;17.96;60.24;99932.13;7393621;19;1481;-40
2023/12/02 02:02:58;;;;;;;;;;;;;;;18.02;59.99;99924.34;7393236;19;1424;-40
2023/12/02 02:05:30;;;;;;;;;;;;;;;18.02;59.93;99926.19;7393456;19;1549;-41
2023/12/02 02:07:58;;;;;;;;;;;;;;;17.99;59.93;99918.47;7394757;19;1286;-40
2023/12/02 02:10:26;;;;;;;;;;;;;;;17.88;60.16;99898.94;7394898;19;1811;-40
2023/12/02 02:12:55;;;;;;;;;;;;;;;17.95;60.25;99887.66;7393280;19;1951;-40
2023/12/02 02:15:23;;;;;;;;;;;;;;;17.94;60.13;99916.22;7392561;19;1834;-40
2023/12/02 02:17:51;;;;;;;;;;;;;;;18.16;59.41;99906.09;7393636;19;1507;-40
2023/12/02 02:20:20;;;;;;;;;;;;;;;18.69;58.44;99899.91;7392450;19;1477;-40
2023/12/02 02:22:51;;;;;;;;;;;;;;;18.62;58.53;99890.81;7378464;19;1753;-40
2023/12/02 02:25:19;;;;;;;;;;;;;;;18.34;58.72;99911.47;7389509;19;1775;-40
2023/12/02 02:27:47;;;;;;;;;;;;;;;18.17;59.56;99905.13;7393615;19;1511;-40
2023/12/02 02:30:16;;;;;;;;;;;;;;;18.12;59.81;99913.56;7392359;19;1507;-40
2023/12/02 02:32:44;;;;;;;;;;;;;;;18.06;59.87;99911.50;7391649;19;2783;-40
2023/12/02 02:35:12;;;;;;;;;;;;;;;18.53;58.54;99908.66;7389496;19;1918;-40
2023/12/02 02:37:41;;;;;;;;;;;;;;;19.25;57.08;99904.03;7393710;19;1553;-41
2023/12/02 02:40:12;;;;;;;;;;;;;;;19.98;55.11;99901.91;7392958;19;1816;-40
2023/12/02 02:42:41;;;;;;;;;;;;;;;20.35;54.60;99903.31;7391664;19;1516;-40
2023/12/02 02:45:09;;;;;;;;;;;;;;;20.40;54.16;99896.44;7391944;19;1499;-40
2023/12/02 02:47:38;;;;;;;;;;;;;;;20.42;54.45;99907.03;7392682;19;1438;-40
2023/12/02 02:50:07;;;;;;;;;;;;;;;20.52;54.23;99891.59;7392313;19;1530;-40
2023/12/02 02:52:36;;;;;;;;;;;;;;;20.49;53.99;99883.88;7391547;19;1447;-40
2023/12/02 02:55:04;;;;;;;;;;;;;;;20.45;54.51;99864.59;7390757;19;1843;-40
2023/12/02 02:57:35;;;;;;;;;;;;;;;20.42;54.37;99890.91;7392103;19;1281;-40
2023/12/02 03:00:04;;;;;;;;;;;;;;;20.40;54.59;99871.44;7392051;19;1856;-40
2023/12/02 03:02:33;;;;;;;;;;;;;;;20.45;54.40;99867.28;7391250;19;1506;-40
2023/12/02 03:05:01;;;;;;;;;;;;;;;20.57;53.93;99865.09;7390972;19;1497;-40
2023/12/02 03:07:29;;;;;;;;;;;;;;;20.46;54.49;99866.25;7391970;19;1592;-40
2023/12/02 03:09:59;;;;;;;;;;;;;;;20.40;54.62;99871.44;7390996;19;1461;-40
2023/12/02 03:12:27;;;;;;;;;;;;;;;20.46;54.28;99870.78;7390491;19;1455;-40
2023/12/02 03:14:58;;;;;;;;;;;;;;;20.52;54.22;99869.28;7390366;19;1857;-40
2023/12/02 03:17:26;;;;;;;;;;;;;;;20.54;54.24;99865.41;7391940;19;1463;-40
2023/12/02 03:19:55;;;;;;;;;;;;;;;20.60;54.23;99877.38;7391667;19;1588;-40
2023/12/02 03:22:23;;;;;;;;;;;;;;;20.51;54.28;99857.66;7391077;19;1593;-40
2023/12/02 03:24:51;;;;;;;;;;;;;;;20.52;55.34;99862.06;7377022;19;1395;-40
2023/12/02 03:27:20;;;;;;;;;;;;;;;20.42;55.98;99870.28;7383773;19;1432;-40
2023/12/02 03:29:48;;;;;;;;;;;;;;;20.60;55.34;99866.63;7384030;19;1402;-40
2023/12/02 03:32:19;;;;;;;;;;;;;;;20.53;55.70;99877.19;7389496;19;1626;-40
2023/12/02 03:34:47;;;;;;;;;;;;;;;20.53;56.08;99874.50;7387634;19;1496;-41
2023/12/02 03:37:15;;;;;;;;;;;;;;;20.61;55.90;99885.28;7388643;19;1837;-40
2023/12/02 03:39:44;;;;;;;;;;;;;;;20.55;56.38;99874.31;7391411;19;1573;-40
2023/12/02 03:42:12;;;;;;;;;;;;;;;20.50;56.49;99868.59;7389557;19;1431;-40
2023/12/02 03:44:40;;;;;;;;;;;;;;;20.52;56.15;99872.81;7390953;19;1815;-40
2023/12/02 03:47:09;;;;;;;;;;;;;;;20.62;55.88;99876.19;7389955;19;1534;-40
2023/12/02 03:49:40;;;;;;;;;;;;;;;20.49;56.49;99874.97;7387108;19;1429;-40
2023/12/02 03:52:09;;;;;;;;;;;;;;;20.56;56.17;99859.88;7389909;19;1595;-40
2023/12/02 03:54:37;;;;;;;;;;;;;;;20.33;56.03;99832.84;7387911;19;1676;-40
2023/12/02 03:57:05;;;;;;;;;;;;;;;20.59;56.19;99862.25;7387605;19;1826;-40
2023/12/02 03:59:35;;;;;;;;;;;;;;;20.51;56.10;99871.09;7388633;19;1825;-40
2023/12/02 04:02:03;;;;;;;;;;;;;;;19.93;57.50;99874.72;7390221;19;1492;-40
2023/12/02 04:04:32;;;;;;;;;;;;;;;19.47;58.52;99870.47;7388745;19;1792;-40
2023/12/02 04:07:04;;;;;;;;;;;;;;;19.22;59.22;99866.84;7388887;19;1796;-40
2023/12/02 04:09:32;;;;;;;;;;;;;;;19.10;59.62;99869.94;7389282;19;1669;-40
2023/12/02 04:12:01;;;;;;;;;;;;;;;18.97;59.52;99865.00;7388765;19;1554;-40
2023/12/02 04:14:29;;;;;;;;;;;;;;;19.28;59.11;99868.06;7386086;19;1528;-40
2023/12/02 04:16:58;;;;;;;;;;;;;;;19.75;57.95;99862.25;7385881;19;1841;-40
2023/12/02 04:19:27;;;;;;;;;;;;;;;19.85;57.58;99849.53;7388042;19;1412;-40
2023/12/02 04:21:55;;;;;;;;;;;;;;;19.49;58.33;99838.13;7387287;19;1427;-40
2023/12/02 04:24:26;;;;;;;;;;;;;;;19.16;59.08;99846.03;7373378;19;1490;-40
2023/12/02 04:26:55;;;;;;;;;;;;;;;18.96;59.65;99845.41;7389327;19;1511;-40
2023/12/02 04:29:23;;;;;;;;;;;;;;;18.94;59.85;99834.03;7387064;19;1448;-40
2023/12/02 04:31:52;;;;;;;;;;;;;;;19.57;58.29;99826.59;7389138;19;1207;-40
2023/12/02 04:34:20;;;;;;;;;;;;;;;19.84;57.43;99817.50;7388393;19;1787;-40
2023/12/02 04:36:48;;;;;;;;;;;;;;;19.65;58.18;99835.50;7386256;19;1842;-40
2023/12/02 04:39:17;;;;;;;;;;;;;;;19.23;58.51;99832.84;7388422;19;1529;-43
2023/12/02 04:41:48;;;;;;;;;;;;;;;18.99;59.41;99839.72;7389214;19;1533;-41
2023/12/02 04:44:16;;;;;;;;;;;;;;;18.87;59.55;99839.16;7388327;19;1546;-40
2023/12/02 04:46:45;;;;;;;;;;;;;;;19.22;58.92;99840.03;7387763;19;1470;-40
2023/12/02 04:49:14;;;;;;;;;;;;;;;19.62;58.15;99854.63;7387393;19;1428;-40
2023/12/02 04:51:42;;;;;;;;;;;;;;;19.83;57.31;99851.53;7388487;19;1491;-40
2023/12/02 04:54:10;;;;;;;;;;;;;;;19.91;57.20;99844.53;7388968;19;1569;-41
2023/12/02 04:56:39;;;;;;;;;;;;;;;19.94;57.19;99844.19;7389273;19;1906;-40
2023/12/02 04:59:10;;;;;;;;;;;;;;;19.87;57.16;99825.22;7389399;19;1394;-41
2023/12/02 05:01:38;;;;;;;;;;;;;;;19.94;56.89;99855.78;7388652;19;1824;-40
2023/12/02 05:04:09;;;;;;;;;;;;;;;19.97;56.86;99854.59;7389285;19;1786;-40
2023/12/02 05:06:38;;;;;;;;;;;;;;;19.98;56.96;99851.75;7396819;19;1799;-40
2023/12/02 05:09:06;;;;;;;;;;;;;;;19.98;56.87;99853.59;7395705;19;1585;-40
2023/12/02 05:11:35;;;;;;;;;;;;;;;20.03;56.67;99843.19;7396182;19;1545;-40
2023/12/02 05:14:03;;;;;;;;;;;;;;;20.03;56.71;99835.16;7394749;19;1453;-40
2023/12/02 05:16:34;;;;;;;;;;;;;;;19.99;56.60;99848.06;7393706;19;1847;-40
2023/12/02 05:19:02;;;;;;;;;;;;;;;19.98;56.72;99840.19;7396206;19;1562;-40
2023/12/02 05:21:31;;;;;;;;;;;;;;;19.95;56.84;99827.91;7390605;19;1372;-40
2023/12/02 05:24:00;;;;;;;;;;;;;;;19.99;56.72;99841.84;7380651;19;1768;-40
2023/12/02 05:26:28;;;;;;;;;;;;;;;20.00;56.55;99835.50;7395611;19;1334;-41
2023/12/02 05:28:57;;;;;;;;;;;;;;;19.52;57.35;99828.94;7394177;19;1500;-46
2023/12/02 05:31:25;;;;;;;;;;;;;;;19.23;58.32;99838.19;7395136;19;1851;-40
2023/12/02 05:33:56;;;;;;;;;;;;;;;18.93;58.76;99821.59;7394485;19;1839;-41
2023/12/02 05:36:26;;;;;;;;;;;;;;;18.88;58.91;99830.13;7393018;19;1847;-40
2023/12/02 05:38:54;;;;;;;;;;;;;;;18.59;59.75;99824.19;7394488;19;1405;-40
2023/12/02 05:41:22;;;;;;;;;;;;;;;18.71;59.68;99822.94;7395267;19;1547;-40
2023/12/02 05:43:51;;;;;;;;;;;;;;;19.24;58.54;99826.47;7396152;19;1180;-40
2023/12/02 05:46:20;;;;;;;;;;;;;;;19.65;57.60;99830.16;7393643;19;1860;-41
2023/12/02 05:48:48;;;;;;;;;;;;;;;19.38;57.20;99753.50;7393659;19;1725;-44
2023/12/02 05:51:19;;;;;;;;;;;;;;;19.93;56.68;99827.25;7394898;19;1930;-40
2023/12/02 05:53:47;;;;;;;;;;;;;;;19.93;56.84;99824.56;7393881;19;1507;-40
2023/12/02 05:56:16;;;;;;;;;;;;;;;19.96;56.55;99816.19;7393147;19;1853;-40
2023/12/02 05:58:44;;;;;;;;;;;;;;;19.93;56.57;99802.25;7395282;19;1799;-40
2023/12/02 06:01:12;;;;;;;;;;;;;;;19.95;56.68;99802.94;7393814;19;1675;-40
2023/12/02 06:03:40;;;;;;;;;;;;;;;19.90;56.70;99813.34;7393391;19;1548;-40
2023/12/02 06:06:12;;;;;;;;;;;;;;;19.86;56.73;99832.44;7389230;19;1401;-40
2023/12/02 06:08:43;;;;;;;;;;;;;;;19.39;57.92;99837.44;7393811;19;1531;-40
2023/12/02 06:11:12;;;;;;;;;;;;;;;19.05;58.87;99833.72;7394052;19;1604;-40
2023/12/02 06:13:40;;;;;;;;;;;;;;;18.87;59.19;99824.91;7393695;19;1612;-40
2023/12/02 06:16:09;;;;;;;;;;;;;;;19.30;58.46;99833.88;7391709;19;1853;-40
2023/12/02 06:18:37;;;;;;;;;;;;;;;19.71;57.43;99812.59;7394173;19;1555;-40
2023/12/02 06:21:05;;;;;;;;;;;;;;;19.76;56.95;99821.00;7394090;19;1813;-40
2023/12/02 06:23:34;;;;;;;;;;;;;;;19.35;57.99;99815.47;7385783;19;1556;-40
2023/12/02 06:26:05;;;;;;;;;;;;;;;19.03;58.88;99819.66;7387458;19;1560;-40
2023/12/02 06:28:33;;;;;;;;;;;;;;;18.88;59.03;99821.25;7394095;19;1580;-40
2023/12/02 06:31:01;;;;;;;;;;;;;;;19.30;58.23;99824.97;7391418;19;1864;-40
2023/12/02 06:33:30;;;;;;;;;;;;;;;19.83;57.27;99813.13;7391886;19;1563;-40
2023/12/02 06:35:58;;;;;;;;;;;;;;;19.80;57.66;99806.25;7393012;19;1837;-41
2023/12/02 06:38:26;;;;;;;;;;;;;;;19.62;58.42;99809.03;7391526;19;1460;-39
2023/12/02 06:40:55;;;;;;;;;;;;;;;19.48;59.09;99815.84;7394146;19;1427;-40
2023/12/02 06:43:26;;;;;;;;;;;;;;;19.81;58.40;99807.94;7390765;19;1825;-41
2023/12/02 06:45:54;;;;;;;;;;;;;;;20.14;57.25;99813.38;7387903;19;1777;-40
2023/12/02 06:48:23;;;;;;;;;;;;;;;20.36;57.08;99803.81;7389974;19;1388;-39
2023/12/02 06:50:51;;;;;;;;;;;;;;;20.13;57.08;99822.41;7390081;19;1688;-40
2023/12/02 06:53:19;;;;;;;;;;;;;;;19.68;58.11;99845.09;7386538;19;1352;-40
2023/12/02 06:55:48;;;;;;;;;;;;;;;19.57;57.91;99831.97;7389803;19;1440;-40
2023/12/02 06:58:17;;;;;;;;;;;;;;;20.04;56.76;99813.53;7386577;19;1845;-40
2023/12/02 07:00:49;;;;;;;;;;;;;;;20.36;55.69;99811.03;7392344;19;1543;-40
2023/12/02 07:03:17;;;;;;;;;;;;;;;20.04;56.87;99826.09;7392723;19;1586;-40
2023/12/02 07:05:45;;;;;;;;;;;;;;;19.61;57.38;99817.25;7391020;19;1432;-43
2023/12/02 07:08:13;;;;;;;;;;;;;;;19.63;56.93;99812.53;7392419;19;1423;-44
2023/12/02 07:10:42;;;;;;;;;;;;;;;19.77;55.19;99805.75;7393377;19;1630;-44
2023/12/02 07:13:10;;;;;;;;;;;;;;;19.84;52.82;99812.97;7389880;19;1415;-44
2023/12/02 07:15:38;;;;;;;;;;;;;;;19.67;51.83;99797.81;7390599;19;1938;-44
2023/12/02 07:18:09;;;;;;;;;;;;;;;19.72;49.57;99808.94;7389574;19;1920;-44
2023/12/02 07:20:38;;;;;;;;;;;;;;;19.55;49.12;99807.16;7391118;19;1732;-44
2023/12/02 07:23:06;;;;;;;;;;;;;;;19.51;48.47;99813.84;7391973;19;1778;-44
2023/12/02 07:25:34;;;;;;;;;;;;;;;19.53;47.56;99817.22;7377881;19;1742;-44
2023/12/02 07:28:03;;;;;;;;;;;;;;;19.66;47.67;99804.19;7391434;19;1405;-44
2023/12/02 07:30:31;;;;;;;;;;;;;;;19.74;47.58;99817.66;7390419;19;1740;-44
2023/12/02 07:33:00;;;;;;;;;;;;;;;19.80;47.80;99822.34;7390834;19;1638;-44
2023/12/02 07:35:31;;;;;;;;;;;;;;;19.23;49.74;99814.91;7390607;19;1830;-44
2023/12/02 07:38:02;;;;;;;;;;;;;;;18.49;48.13;99837.66;7390872;19;1834;-44
2023/12/02 07:40:30;;;;;;;;;;;;;;;18.29;51.60;99821.78;7391608;19;1855;-44
2023/12/02 07:42:59;;;;;;;;;;;;;;;18.26;51.44;99822.09;7391331;19;1908;-44
2023/12/02 07:45:28;;;;;;;;;;;;;;;18.19;51.27;99828.22;7390078;19;1549;-44
2023/12/02 07:47:57;;;;;;;;;;;;;;;18.19;51.69;99831.72;7389216;19;1402;-44
2023/12/02 07:50:25;;;;;;;;;;;;;;;18.18;52.47;99834.53;7391164;19;1547;-43
2023/12/02 07:52:56;;;;;;;;;;;;;;;18.10;52.80;99859.38;7389911;19;1373;-44
2023/12/02 07:55:24;;;;;;;;;;;;;;;17.99;52.81;99847.06;7390045;19;1471;-44
2023/12/02 07:57:56;;;;;;;;;;;;;;;18.09;52.59;99850.53;7388112;19;1855;-44
2023/12/02 08:00:24;;;;;;;;;;;;;;;18.17;53.26;99857.78;7390364;19;1467;-43
2023/12/02 08:02:52;;;;;;;;;;;;;;;18.24;53.08;99861.56;7389328;19;1395;-44
2023/12/02 08:05:21;;;;;;;;;;;;;;;18.37;52.56;99866.50;7389820;19;1522;-44
2023/12/02 08:07:51;;;;;;;;;;;;;;;18.46;52.68;99867.41;7391029;19;1045;-44
2023/12/02 08:10:21;;;;;;;;;;;;;;;18.31;53.15;99860.94;7389043;19;1961;-44
2023/12/02 08:12:50;;;;;;;;;;;;;;;18.25;53.09;99862.38;7389443;19;1954;-44
2023/12/02 08:15:18;;;;;;;;;;;;;;;18.21;52.68;99859.16;7388557;19;1733;-44
2023/12/02 08:17:47;;;;;;;;;;;;;;;18.07;53.00;99857.03;7384230;19;1891;-44
2023/12/02 08:20:15;;;;;;;;;;;;;;;18.01;55.42;99853.13;7383821;19;1796;-44
2023/12/02 08:22:44;;;;;;;;;;;;;;;17.93;56.54;99866.41;7389450;19;1865;-44
2023/12/02 08:25:12;;;;;;;;;;;;;;;18.16;56.93;99858.78;7375722;19;1603;-44
2023/12/02 08:27:43;;;;;;;;;;;;;;;18.29;56.71;99858.41;7388092;19;1603;-43
2023/12/02 08:30:12;;;;;;;;;;;;;;;18.53;57.19;99868.50;7386781;19;1416;-42
2023/12/02 08:32:40;;;;;;;;;;;;;;;19.18;56.04;99853.91;7388673;19;1649;-43
2023/12/02 08:35:10;;;;;;;;;;;;;;;19.54;55.65;99853.78;7389126;19;1490;-43
2023/12/02 08:37:38;;;;;;;;;;;;;;;19.33;57.56;99863.03;7387317;19;1864;-45
2023/12/02 08:40:08;;;;;;;;;;;;;;;19.28;57.82;99855.47;7389051;19;1486;-46
2023/12/02 08:42:36;;;;;;;;;;;;;;;19.02;57.97;99839.44;7395743;19;1570;-46
2023/12/02 08:45:07;;;;;;;;;;;;;;;19.43;58.17;99838.78;7393332;19;1611;-46
2023/12/02 08:47:36;;;;;;;;;;;;;;;19.82;57.06;99876.69;7394526;19;1579;-46
2023/12/02 08:50:04;;;;;;;;;;;;;;;19.64;57.98;99841.06;7392197;19;1503;-46
2023/12/02 08:52:33;;;;;;;;;;;;;;;19.42;57.61;99840.63;7390510;19;1491;-43
2023/12/02 08:55:01;;;;;;;;;;;;;;;19.32;58.16;99852.47;7396065;19;1599;-46
2023/12/02 08:57:30;;;;;;;;;;;;;;;19.34;58.45;99845.97;7387349;19;3192;-78
2023/12/02 08:59:59;;;;;;;;;;;;;;;19.79;56.92;99849.34;7407674;19;1572;-80
2023/12/02 09:02:30;;;;;;;;;;;;;;;19.91;56.51;99815.84;7414326;19;1850;-79
2023/12/02 09:05:01;;;;;;;;;;;;;;;19.71;57.17;99817.97;7419013;19;1398;-81
2023/12/02 09:07:30;;;;;;;;;;;;;;;19.40;57.67;99829.22;7412949;19;1517;-80
2023/12/02 09:09:58;;;;;;;;;;;;;;;19.22;57.98;99807.03;7411948;19;1659;-79
2023/12/02 09:12:27;;;;;;;;;;;;;;;19.31;57.76;99806.06;7410158;19;1612;-77
2023/12/02 09:15:03;;;;;;;;;;;;;;;19.80;56.59;99782.13;7403417;19;1744;-78
2023/12/02 09:17:47;;;;;;;;;;;;;;;19.97;56.24;99790.19;7409579;19;1849;-78
2023/12/02 09:20:31;;;;;;;;;;;;;;;19.62;57.07;99778.69;7411940;19;1572;-79
2023/12/02 09:23:02;;;;;;;;;;;;;;;19.33;57.64;99782.63;7415781;19;1556;-80
2023/12/02 09:25:31;;;;;;;;;;;;;;;19.12;58.32;99782.19;7419560;19;1234;-81
2023/12/02 09:28:15;;;;;;;;;;;;;;;19.31;57.74;99779.25;7416817;19;1580;-80
2023/12/02 09:30:48;;;;;;;;;;;;;;;19.87;56.48;99768.88;7410337;19;1517;-80
2023/12/02 09:33:19;;;;;;;;;;;;;;;19.89;56.63;99757.97;7411225;19;1557;-78
2023/12/02 09:35:48;;;;;;;;;;;;;;;19.57;57.19;99756.88;7416564;19;1560;-80
2023/12/02 09:38:17;;;;;;;;;;;;;;;19.33;58.11;99747.75;7405184;19;1830;-80
2023/12/02 09:40:52;;;;;;;;;;;;;;;19.16;58.24;99746.03;7410206;19;1575;-79
2023/12/02 09:43:28;;;;;;;;;;;;;;;19.44;58.01;99741.28;7403948;19;1489;-80
2023/12/02 09:46:11;;;;;;;;;;;;;;;19.83;56.80;99735.34;7407132;19;1340;-80
2023/12/02 09:48:46;;;;;;;;;;;;;;;19.83;56.94;99735.34;7406211;19;1359;-80
2023/12/02 09:51:21;;;;;;;;;;;;;;;19.48;57.32;99726.53;7401318;19;1493;-80
2023/12/02 09:53:55;;;;;;;;;;;;;;;19.28;57.98;99701.88;7406164;19;1514;-80
2023/12/02 09:56:26;;;;;;;;;;;;;;;19.13;58.47;99715.03;7402882;19;2473;-80
2023/12/02 09:59:00;;;;;;;;;;;;;;;19.60;57.29;99713.66;7393266;19;1843;-79
2023/12/02 10:01:33;;;;;;;;;;;;;;;19.97;56.53;99704.31;7405319;19;1527;-81
2023/12/02 10:04:12;;;;;;;;;;;;;;;19.75;57.05;99698.59;7401919;19;1455;-81
2023/12/02 10:06:49;;;;;;;;;;;;;;;19.43;57.88;99702.06;7405803;19;1402;-80
2023/12/02 10:09:28;;;;;;;;;;;;;;;19.22;58.19;99691.78;7405629;19;1444;-80
2023/12/02 10:12:03;;;;;;;;;;;;;;;19.25;58.25;99684.25;7407680;19;1445;-80
2023/12/02 10:14:35;;;;;;;;;;;;;;;19.86;56.75;99654.53;7408206;19;1430;-80
2023/12/02 10:17:05;;;;;;;;;;;;;;;19.96;56.73;99655.19;7408307;19;1242;-80
2023/12/02 10:19:39;;;;;;;;;;;;;;;19.64;57.24;99643.44;7404971;19;1803;-79
2023/12/02 10:22:09;;;;;;;;;;;;;;;19.41;57.99;99639.72;7406957;19;1786;-80
2023/12/02 10:24:39;;;;;;;;;;;;;;;19.25;58.48;99644.03;7404263;19;1468;-81
2023/12/02 10:27:11;;;;;;;;;;;;;;;19.21;58.27;99634.66;7404520;19;1341;-83
2023/12/02 10:29:49;;;;;;;;;;;;;;;19.49;57.05;99642.41;7403014;19;1503;-80
2023/12/02 10:32:23;;;;;;;;;;;;;;;19.83;56.33;99639.59;7407215;19;1511;-80
2023/12/02 10:34:59;;;;;;;;;;;;;;;19.66;56.61;99611.91;7405350;19;1481;-81
2023/12/02 10:37:33;;;;;;;;;;;;;;;19.43;57.22;99603.69;7407800;19;1864;-80
2023/12/02 10:40:03;;;;;;;;;;;;;;;19.23;57.89;99575.53;7406960;19;1407;-81
2023/12/02 10:42:36;;;;;;;;;;;;;;;19.07;58.27;99590.56;7406906;19;1441;-81
2023/12/02 10:45:06;;;;;;;;;;;;;;;19.82;56.16;99629.88;7405234;19;1537;-81
2023/12/02 10:47:34;;;;;;;;;;;;;;;20.04;55.42;99628.34;7405481;19;1371;-81
2023/12/02 10:50:05;;;;;;;;;;;;;;;19.92;56.10;99677.16;7406312;19;1495;-81
2023/12/02 10:52:34;;;;;;;;;;;;;;;19.65;56.56;99671.06;7405861;19;1327;-81
2023/12/02 10:55:04;;;;;;;;;;;;;;;19.36;57.49;99703.69;7404158;19;1517;-80
2023/12/02 10:57:33;;;;;;;;;;;;;;;19.20;57.58;99704.50;7404566;19;1852;-79
2023/12/02 11:00:06;;;;;;;;;;;;;;;19.13;57.58;99688.22;7394430;19;1323;-81
2023/12/02 11:02:40;;;;;;;;;;;;;;;19.68;56.52;99701.09;7403850;19;1402;-81
2023/12/02 11:05:20;;;;;;;;;;;;;;;19.86;56.14;99702.81;7414746;19;1428;-80
2023/12/02 11:07:50;;;;;;;;;;;;;;;19.52;56.77;99687.66;7415863;19;1414;-80
2023/12/02 11:10:26;;;;;;;;;;;;;;;19.24;57.64;99708.56;7407402;19;1494;-80
2023/12/02 11:12:57;;;;;;;;;;;;;;;19.07;58.25;99707.66;7406150;19;1321;-80
2023/12/02 11:15:26;;;;;;;;;;;;;;;19.45;57.47;99721.50;7404498;19;1371;-81
2023/12/02 11:18:00;;;;;;;;;;;;;;;20.03;55.97;99698.28;7405402;19;1877;-81
2023/12/02 11:20:35;;;;;;;;;;;;;;;19.97;56.24;99682.84;7407616;19;1368;-81
2023/12/02 11:23:12;;;;;;;;;;;;;;;19.62;57.24;99679.47;7405495;19;1419;-81
2023/12/02 11:25:48;;;;;;;;;;;;;;;19.37;57.93;99674.06;7404215;19;1393;-81
2023/12/02 11:28:23;;;;;;;;;;;;;;;19.13;58.09;99660.59;7396298;19;1415;-78
2023/12/02 11:31:09;;;;;;;;;;;;;;;19.40;58.15;99654.13;7393940;19;1401;-81
2023/12/02 11:33:45;;;;;;;;;;;;;;;20.08;56.31;99626.16;7400614;19;1402;-81
2023/12/02 11:36:19;;;;;;;;;;;;;;;20.02;56.49;99640.25;7290700;19;13317;-78
2023/12/02 11:38:56;;;;;;;;;;;;;;;19.69;57.17;99621.47;7392349;19;1855;-79
2023/12/02 11:41:26;;;;;;;;;;;;;;;19.38;58.26;99614.09;7394177;19;1450;-78
2023/12/02 11:43:58;;;;;;;;;;;;;;;19.23;58.31;99635.31;7395520;19;1435;-78
2023/12/02 11:46:31;;;;;;;;;;;;;;;19.18;58.37;99599.28;7396547;19;1722;-78
2023/12/02 11:49:06;;;;;;;;;;;;;;;19.84;57.11;99613.63;7396949;19;1497;-78
2023/12/02 11:51:45;;;;;;;;;;;;;;;20.08;56.58;99636.91;7395439;19;1549;-78
2023/12/02 11:54:21;;;;;;;;;;;;;;;19.67;57.65;99628.84;7395498;19;1384;-78
2023/12/02 11:56:53;;;;;;;;;;;;;;;19.10;58.71;99588.56;7392500;19;1478;-78
2023/12/02 11:59:22;;;;;;;;;;;;;;;19.23;59.02;99621.09;7379727;19;1864;-77
2023/12/02 12:02:02;;;;;;;;;;;;;;;19.13;60.04;99631.97;7390136;19;1379;-78
2023/12/02 12:04:50;;;;;;;;;;;;;;;19.18;59.94;99652.91;7392574;19;1435;-77
2023/12/02 12:07:26;;;;;;;;;;;;;;;19.18;60.23;99679.69;7392815;19;1420;-77
2023/12/02 12:10:02;;;;;;;;;;;;;;;19.13;60.25;99625.78;7391785;19;1588;-77
2023/12/02 12:12:31;;;;;;;;;;;;;;;19.64;58.56;99621.13;7392289;19;1554;-77
2023/12/02 12:15:00;;;;;;;;;;;;;;;19.82;58.38;99627.19;7389627;19;1481;-77
2023/12/02 12:17:29;;;;;;;;;;;;;;;19.61;58.86;99613.41;7390426;19;1395;-77
2023/12/02 12:19:59;;;;;;;;;;;;;;;19.29;59.83;99604.34;7388716;19;1869;-77
2023/12/02 12:22:30;;;;;;;;;;;;;;;19.14;59.89;99593.44;7390324;19;1545;-77
2023/12/02 12:24:58;;;;;;;;;;;;;;;19.46;59.26;99571.19;7391346;19;1467;-77
2023/12/02 12:27:27;;;;;;;;;;;;;;;20.19;57.24;99566.75;7387473;19;2333;-77
2023/12/02 12:29:55;;;;;;;;;;;;;;;19.96;57.73;99552.41;7390174;19;1400;-77
2023/12/02 12:32:24;;;;;;;;;;;;;;;19.65;58.44;99571.84;7388240;19;1380;-77
2023/12/02 12:34:54;;;;;;;;;;;;;;;19.29;59.46;99593.63;7388473;19;1380;-77
2023/12/02 12:37:23;;;;;;;;;;;;;;;19.11;59.58;99566.16;7387431;19;2454;-77
2023/12/02 12:39:55;;;;;;;;;;;;;;;19.39;59.18;99628.31;7388212;19;1833;-80
2023/12/02 12:42:24;;;;;;;;;;;;;;;20.01;57.67;99558.91;7376153;19;1783;-76
2023/12/02 12:44:53;;;;;;;;;;;;;;;19.94;57.48;99576.72;7390723;19;1542;-77
2023/12/02 12:47:21;;;;;;;;;;;;;;;19.66;58.10;99598.50;7388756;19;1500;-77
2023/12/02 12:49:50;;;;;;;;;;;;;;;19.41;58.70;99592.28;7393333;19;1408;-76
2023/12/02 12:52:22;;;;;;;;;;;;;;;19.10;59.24;99597.47;7394728;19;1463;-77
2023/12/02 12:54:52;;;;;;;;;;;;;;;18.97;58.66;99648.81;7393673;19;1593;-77
2023/12/02 12:57:28;;;;;;;;;;;;;;;19.61;56.26;99608.06;7392977;19;1470;-77
2023/12/02 13:00:01;;;;;;;;;;;;;;;20.14;55.21;99620.13;7390185;19;1883;-77
2023/12/02 13:02:35;;;;;;;;;;;;;;;19.97;55.76;99613.09;7390132;19;1493;-77
2023/12/02 13:05:09;;;;;;;;;;;;;;;19.68;56.61;99612.59;7389390;19;1526;-77
2023/12/02 13:07:41;;;;;;;;;;;;;;;19.42;57.36;99587.78;7388297;19;1966;-77
2023/12/02 13:10:12;;;;;;;;;;;;;;;19.19;57.94;99603.66;7388986;19;1859;-80
2023/12/02 13:12:45;;;;;;;;;;;;;;;19.15;58.01;99570.16;7390100;19;1835;-78